Data for 06/24/2014

Time Sea-Level Adjusted Pressure Absolute Pressure Temperature Relative Humidity Dew Point   
(mb) (inHg) (mb) (inHg) (C) (F) (%) (C) (F)
00:05 1021 30.15 851 25.13 14.5 58 59 6.6 43.9
00:10 1021 30.15 850 25.1 14.5 58.1 59 6.6 43.9
00:15 1021 30.15 850 25.1 14.6 58.2 58 6.5 43.7
00:20 1021 30.15 850 25.1 14.6 58.2 59 6.7 44
00:25 1021 30.15 850 25.1 14.4 57.9 59 6.6 43.9
00:30 1021 30.15 850 25.1 14.2 57.6 60 6.6 43.9
00:35 1021 30.15 850 25.1 14.2 57.6 60 6.5 43.7
00:40 1021 30.15 850 25.1 14.2 57.6 60 6.5 43.7
00:45 1021 30.15 850 25.1 14.3 57.7 59 6.4 43.6
00:50 1021 30.15 850 25.1 14.3 57.8 59 6.5 43.6
00:55 1021 30.15 850 25.1 14.3 57.7 59 6.4 43.5
01:00 1021 30.15 850 25.1 14.3 57.7 59 6.4 43.5
01:05 1021 30.15 850 25.1 14.2 57.6 59 6.3 43.4
01:10 1021 30.15 850 25.1 14.2 57.5 59 6.4 43.6
01:15 1021 30.15 850 25.1 14.1 57.3 60 6.5 43.7
01:20 1021 30.15 850 25.1 14 57.1 60 6.5 43.7
01:25 1021 30.15 850 25.1 13.8 56.9 61 6.4 43.6
01:30 1021 30.15 850 25.1 13.8 56.8 61 6.4 43.5
01:35 1021 30.15 850 25.1 13.8 56.8 61 6.4 43.6
01:40 1021 30.15 850 25.1 13.8 56.8 61 6.5 43.8
01:45 1021 30.15 850 25.1 13.6 56.4 62 6.6 43.9
01:50 1021 30.15 850 25.1 13.5 56.4 62 6.4 43.5
01:55 1021 30.15 850 25.1 13.6 56.6 62 6.5 43.8
02:00 1021 30.15 850 25.1 13.5 56.3 62 6.5 43.7
02:05 1021 30.15 850 25.1 13.5 56.3 62 6.5 43.7
02:10 1021 30.15 850 25.1 13.5 56.2 62 6.4 43.6
02:15 1021 30.15 850 25.1 13.4 56.1 63 6.5 43.7
02:20 1021 30.15 850 25.1 13.3 55.9 63 6.5 43.7
02:25 1021 30.15 850 25.1 13.2 55.7 64 6.5 43.7
02:30 1021 30.15 850 25.1 13 55.5 65 6.6 44
02:35 1021 30.15 850 25.1 12.7 54.9 66 6.6 43.9
02:40 1021 30.15 850 25.1 12.5 54.5 67 6.5 43.7
02:45 1021 30.15 850 25.1 12.2 54 68 6.6 43.9
02:50 1021 30.15 850 25.1 11.9 53.3 69 6.3 43.4
02:55 1021 30.15 850 25.1 12 53.5 68 6.2 43.2
03:00 1021 30.15 850 25.1 12.1 53.8 67 6.3 43.3
03:05 1021 30.15 850 25.1 12.1 53.8 68 6.4 43.5
03:10 1021 30.15 850 25.1 12 53.5 68 6.4 43.5
03:15 1021 30.15 850 25.1 11.8 53.3 69 6.4 43.5
03:20 1021 30.15 850 25.1 11.7 53 70 6.3 43.4
03:25 1021 30.15 850 25.1 11.4 52.6 71 6.3 43.4
03:30 1021 30.15 850 25.1 11.2 52.1 71 6.2 43.2
03:35 1021 30.15 850 25.1 11.1 52.1 71 6.2 43.1
03:40 1021 30.15 850 25.1 11.1 52 71 6.1 43.1
03:45 1021 30.15 850 25.1 11.1 51.9 71 6.1 43.1
03:50 1021 30.15 850 25.1 11.2 52.2 71 6.1 43
03:55 1021 30.15 850 25.1 11.4 52.5 70 6.2 43.2
04:00 1021 30.15 850 25.1 11.5 52.7 69 6.1 43
04:05 1021 30.15 850 25.1 11.7 53.1 70 6.4 43.5
04:10 1021 30.15 850 25.1 11.6 52.9 70 6.5 43.6
04:15 1021 30.15 850 25.1 11.3 52.4 71 6.4 43.5
04:20 1021 30.15 850 25.1 11.1 51.9 72 6.3 43.3
04:25 1021 30.15 850 25.1 11.2 52.2 72 6.3 43.4
04:30 1021 30.15 850 25.1 11.2 52.1 72 6.4 43.5
04:35 1021 30.15 850 25.1 11.1 51.9 73 6.4 43.5
04:40 1021 30.15 850 25.1 11.1 52 72 6.3 43.4
04:45 1021 30.15 850 25.1 11.1 51.9 72 6.2 43.1
04:50 1021 30.15 850 25.1 10.8 51.4 73 6.2 43.1
04:55 1021 30.15 850 25.1 10.6 51.1 73 5.9 42.6
05:00 1021 30.15 850 25.1 10.8 51.4 72 6 42.8
05:05 1021 30.15 850 25.1 11 51.8 72 6.2 43.2
05:10 1021 30.15 850 25.1 11.1 52 72 6.3 43.3
05:15 1021 30.15 850 25.1 11.2 52.2 72 6.3 43.4
05:20 1021 30.15 850 25.1 11.3 52.3 71 6.3 43.3
05:25 1021 30.15 850 25.1 11.3 52.3 72 6.4 43.5
05:30 1021 30.15 850 25.1 11.3 52.4 71 6.3 43.4
05:35 1021 30.15 850 25.1 11.6 52.9 71 6.5 43.8
05:40 1021 30.15 850 25.1 11.7 53.1 71 6.6 43.8
05:45 1021 30.15 850 25.1 11.8 53.3 70 6.6 43.9
05:50 1021 30.15 850 25.1 12 53.6 69 6.6 43.9
05:55 1021 30.15 850 25.1 12.3 54.1 69 6.7 44.1
06:00 1021 30.15 850 25.1 12.6 54.6 67 6.8 44.2
06:05 1021 30.15 850 25.1 12.7 54.8 68 6.9 44.4
06:10 1021 30.15 850 25.1 12.9 55.2 67 7 44.5
06:15 1021 30.15 850 25.1 13.2 55.8 65 6.9 44.4
06:20 1021 30.15 850 25.1 13.4 56 65 7 44.6
06:25 1021 30.15 850 25.1 13.7 56.7 63 6.9 44.5
06:30 1021 30.15 850 25.1 13.9 57.1 63 7.1 44.7
06:35 1021 30.15 850 25.1 14 57.2 63 7 44.7
06:40 1021 30.15 850 25.1 14.4 57.9 62 7.2 45
06:45 1021 30.15 850 25.1 14.9 58.8 60 7.2 45
06:50 1021 30.15 850 25.1 14.8 58.6 59 7 44.6
06:55 1021 30.15 850 25.1 14.9 58.8 60 7.3 45.2
07:00 1021 30.15 850 25.1 15.2 59.4 56 6.7 44
07:05 1021 30.15 850 25.1 15.3 59.5 55 6.3 43.3
07:10 1021 30.15 850 25.1 15.7 60.2 53 6.1 43.1
07:15 1021 30.15 850 25.1 15.6 60 54 6.4 43.5
07:20 1021 30.15 850 25.1 15.7 60.3 53 6.2 43.1
07:25 1021 30.15 850 25.1 16.4 61.6 52 6.7 44
07:30 1021 30.15 850 25.1 16.8 62.3 52 6.9 44.4
07:35 1021 30.15 850 25.1 17.1 62.8 52 7.2 45
07:40 1021 30.15 850 25.1 17.1 62.7 53 7.4 45.3
07:45 1021 30.15 850 25.1 17 62.6 51 6.9 44.4
07:50 1021 30.15 850 25.1 16.6 61.8 53 7.1 44.7
07:55 1021 30.15 850 25.1 16.8 62.3 52 6.9 44.4
08:00 1021 30.15 850 25.1 17.3 63.1 51 7.2 44.9
08:05 1021 30.15 850 25.1 17.5 63.5 48 6.6 43.8
08:10 1021 30.15 850 25.1 17.5 63.4 50 7 44.6
08:15 1021 30.15 850 25.1 18 64.3 48 7 44.6
08:20 1021 30.15 850 25.1 17.7 63.8 48 6.6 43.8
08:25 1021 30.15 850 25.1 18 64.4 48 7 44.6
08:30 1020 30.12 850 25.1 17.9 64.3 49 7.3 45.1
08:35 1020 30.12 850 25.1 18 64.3 48 7.1 44.7
08:40 1020 30.12 850 25.1 18.2 64.7 47 6.8 44.2
08:45 1020 30.12 850 25.1 18.4 65 48 7.2 44.9
08:50 1020 30.12 850 25.1 18.8 65.8 45 6.9 44.4
08:55 1020 30.12 850 25.1 18.7 65.6 47 7.3 45.1
09:00 1020 30.12 850 25.1 18.8 65.8 46 7.1 44.8
09:05 1020 30.12 849 25.07 18.9 66 46 7 44.7
09:10 1020 30.12 849 25.07 19.1 66.5 43 6.5 43.7
09:15 1020 30.12 849 25.07 18.9 65.9 46 7.1 44.8
09:20 1020 30.12 849 25.07 19.2 66.5 43 6.5 43.8
09:25 1020 30.12 849 25.07 19.3 66.7 42 6.2 43.2
09:30 1020 30.12 849 25.07 19.5 67.1 43 6.8 44.2
09:35 1020 30.12 849 25.07 19.4 66.9 44 7.1 44.7
09:40 1020 30.12 849 25.07 19 66.2 46 7.1 44.8
09:45 1020 30.12 849 25.07 19.2 66.6 45 7.1 44.8
09:50 1020 30.12 849 25.07 19.5 67.1 45 7.3 45.1
09:55 1020 30.12 849 25.07 19.9 67.8 43 7.2 44.9
10:00 1020 30.12 849 25.07 20.1 68.1 49 9.2 48.5
10:05 1020 30.12 849 25.07 19.7 67.5 45 7.5 45.6
10:10 1020 30.12 849 25.07 19.9 67.7 45 7.6 45.7
10:15 1020 30.12 849 25.07 20.6 69.1 46 8.7 47.7
10:20 1020 30.12 849 25.07 20 67.9 49 9 48.2
10:25 1020 30.12 849 25.07 20.3 68.5 45 8 46.4
10:30 1020 30.12 849 25.07 20.4 68.6 42 7.3 45.2
10:35 1020 30.12 849 25.07 20.5 68.9 42 7.3 45.2
10:40 1020 30.12 849 25.07 20.5 68.9 45 8.3 47
10:45 1020 30.12 849 25.07 20.8 69.5 41 7.4 45.3
10:50 1020 30.12 849 25.07 20.5 69 42 7.5 45.5
10:55 1020 30.12 849 25.07 21.2 70.1 40 7.2 44.9
11:00 1020 30.12 849 25.07 21.2 70.2 39 7 44.5
11:05 1020 30.12 849 25.07 20.7 69.2 39 6.4 43.4
11:10 1019 30.09 849 25.07 20.3 68.6 41 6.8 44.3
11:15 1019 30.09 849 25.07 20.5 68.9 40 6.7 44.1
11:20 1019 30.09 849 25.07 21.2 70.1 39 6.7 44
11:25 1019 30.09 849 25.07 21.6 70.9 38 7 44.6
11:30 1019 30.09 849 25.07 21.5 70.8 39 7.1 44.8
11:35 1019 30.09 849 25.07 21.9 71.4 39 7.3 45.2
11:40 1019 30.09 848 25.04 21.7 71.1 38 7 44.7
11:45 1019 30.09 848 25.04 22 71.6 37 6.9 44.4
11:50 1019 30.09 848 25.04 21.8 71.3 37 6.6 43.8
11:55 1019 30.09 848 25.04 22.1 71.7 37 6.8 44.3
12:00 1019 30.09 848 25.04 22.4 72.4 35 6.4 43.4
12:05 1019 30.09 848 25.04 22.3 72.2 34 5.8 42.4
12:10 1019 30.09 848 25.04 22.4 72.3 36 6.9 44.5
12:15 1019 30.09 848 25.04 22.3 72.1 37 7.1 44.7
12:20 1019 30.09 848 25.04 22.5 72.5 37 7.1 44.8
12:25 1019 30.09 848 25.04 22.7 72.8 36 7 44.6
12:30 1019 30.09 848 25.04 22.6 72.6 36 7 44.6
12:35 1019 30.09 848 25.04 22.7 72.9 35 6.8 44.2
12:40 1018 30.06 848 25.04 22.3 72.2 37 7.1 44.7
12:45 1018 30.06 848 25.04 22 71.7 37 6.9 44.5
12:50 1018 30.06 848 25.04 22.4 72.4 35 6.4 43.5
12:55 1018 30.06 848 25.04 22.3 72.2 38 7.5 45.5
13:00 1018 30.06 848 25.04 22.7 72.8 35 6.6 43.9
13:05 1019 30.09 848 25.04 22.6 72.7 39 8 46.5
13:10 1019 30.09 848 25.04 22.1 71.8 39 7.5 45.5
13:15 1019 30.09 848 25.04 21.5 70.7 41 7.8 46.1
13:20 1019 30.09 848 25.04 21 69.7 44 8.3 47
13:25 1019 30.09 848 25.04 20.7 69.3 46 8.9 48
13:30 1019 30.09 848 25.04 20.6 69 46 8.8 47.8
13:35 1019 30.09 848 25.04 20.4 68.6 37 5.5 41.9
13:40 1019 30.09 848 25.04 19.2 66.5 39 5.1 41.1
13:45 1019 30.09 848 25.04 19 66.2 39 5 41.1
13:50 1018 30.06 848 25.04 19.4 66.9 39 5.1 41.3
13:55 1018 30.06 848 25.04 19.5 67.1 38 5.1 41.2
14:00 1018 30.06 848 25.04 19.2 66.5 42 6.2 43.2
14:05 1018 30.06 848 25.04 18.3 65 48 7.1 44.8
14:10 1018 30.06 848 25.04 18.1 64.6 48 7 44.7
14:15 1018 30.06 847 25.01 18.4 65.1 48 7.5 45.4
14:20 1018 30.06 847 25.01 18.5 65.3 46 6.9 44.4
14:25 1018 30.06 847 25.01 19 66.1 47 7.6 45.8
14:30 1018 30.06 847 25.01 19.3 66.8 46 7.6 45.7
14:35 1018 30.06 847 25.01 19.5 67 47 8 46.5
14:40 1018 30.06 847 25.01 19.5 67 48 8.2 46.8
14:45 1018 30.06 847 25.01 19.8 67.7 45 7.8 46.1
14:50 1018 30.06 847 25.01 20.2 68.3 46 8.3 47
14:55 1018 30.06 847 25.01 20.1 68.2 45 8 46.4
15:00 1018 30.06 847 25.01 19.9 67.9 44 7.3 45.2
15:05 1018 30.06 847 25.01 20.8 69.4 43 8 46.5
15:10 1018 30.06 847 25.01 20.8 69.5 45 8.5 47.3
15:15 1018 30.06 847 25.01 20.5 68.9 46 8.8 47.9
15:20 1018 30.06 847 25.01 20.6 69.2 46 8.7 47.7
15:25 1018 30.06 847 25.01 20.8 69.5 47 9.4 48.9
15:30 1018 30.06 847 25.01 20.8 69.4 47 9.2 48.5
15:35 1018 30.06 847 25.01 20.9 69.6 47 9.4 49
15:40 1018 30.06 847 25.01 21 69.8 45 8.8 47.8
15:45 1018 30.06 847 25.01 21.1 69.9 46 9 48.2
15:50 1018 30.06 847 25.01 21.5 70.6 42 8.3 46.9
15:55 1017 30.03 847 25.01 21.4 70.6 41 7.7 45.9
16:00 1017 30.03 847 25.01 21.7 71.1 40 7.6 45.6
16:05 1017 30.03 847 25.01 22 71.6 38 7.3 45.2
16:10 1017 30.03 846 24.98 22.2 71.9 37 7 44.7
16:15 1017 30.03 846 24.98 21.9 71.3 39 7.3 45.2
16:20 1017 30.03 846 24.98 21.9 71.5 38 7.2 44.9
16:25 1017 30.03 846 24.98 22.2 71.9 38 7.3 45.1
16:30 1017 30.03 846 24.98 22 71.7 37 6.9 44.4
16:35 1017 30.03 846 24.98 22.1 71.7 36 6.5 43.6
16:40 1017 30.03 846 24.98 21.9 71.4 37 6.7 44
16:45 1017 30.03 846 24.98 22.2 72 36 6.6 43.9
16:50 1017 30.03 846 24.98 22.3 72.1 38 7.4 45.4
16:55 1017 30.03 846 24.98 22.3 72.2 37 7.1 44.8
17:00 1017 30.03 846 24.98 22.6 72.6 37 7.5 45.4
17:05 1017 30.03 846 24.98 22.4 72.3 37 7.2 44.9
17:10 1017 30.03 846 24.98 22.1 71.9 38 7.2 44.9
17:15 1017 30.03 846 24.98 22.1 71.7 38 7.1 44.9
17:20 1016 30 846 24.98 21.7 71.1 39 7.4 45.4
17:25 1016 30 846 24.98 21.4 70.5 40 7.3 45.2
17:30 1016 30 845 24.95 21.2 70.1 41 7.5 45.6
17:35 1016 30 846 24.98 21.1 70 41 7.7 45.8
17:40 1017 30.03 846 24.98 21 69.9 43 8.2 46.7
17:45 1016 30 846 24.98 20.9 69.7 43 8.2 46.7
17:50 1017 30.03 846 24.98 20.8 69.5 44 8.1 46.7
17:55 1017 30.03 846 24.98 20.7 69.3 44 8 46.4
18:00 1017 30.03 846 24.98 20.7 69.2 42 7.6 45.8
18:05 1017 30.03 846 24.98 20.6 69.2 43 7.9 46.2
18:10 1018 30.06 847 25.01 20.6 69 43 7.6 45.7
18:15 1018 30.06 848 25.04 19.4 66.9 44 6.8 44.3
18:20 1018 30.06 847 25.01 16.9 62.3 64 10.1 50.2
18:25 1019 30.09 848 25.04 14.2 57.5 75 9.9 49.7
18:30 1019 30.09 848 25.04 13.5 56.3 73 8.9 48
18:35 1019 30.09 848 25.04 14 57.1 72 9.1 48.3
18:40 1019 30.09 848 25.04 13.9 57 72 8.9 48
18:45 1019 30.09 848 25.04 14.1 57.3 72 9.2 48.6
18:50 1019 30.09 848 25.04 14.3 57.7 72 9.4 49
18:55 1019 30.09 848 25.04 14.2 57.5 73 9.4 49
19:00 1019 30.09 848 25.04 14.1 57.5 77 10.2 50.3
19:05 1019 30.09 848 25.04 13.6 56.5 85 11.2 52.2
19:10 1019 30.09 848 25.04 13 55.3 88 11 51.7
19:15 1019 30.09 849 25.07 12.8 55 84 10.2 50.4
19:20 1019 30.09 849 25.07 12.7 54.9 86 10.5 50.9
19:25 1020 30.12 849 25.07 12.6 54.8 85 10.2 50.3
19:30 1020 30.12 849 25.07 12.8 55.1 85 10.4 50.7
19:35 1020 30.12 849 25.07 12.9 55.2 81 9.8 49.7
19:40 1020 30.12 849 25.07 13 55.4 84 10.3 50.6
19:45 1019 30.09 848 25.04 12.9 55.2 84 10.4 50.6
19:50 1019 30.09 848 25.04 12.8 55 84 10.2 50.4
19:55 1019 30.09 848 25.04 12.7 54.8 86 10.4 50.7
20:00 1019 30.09 848 25.04 12.6 54.7 86 10.4 50.8
20:05 1019 30.09 848 25.04 12.7 54.9 83 9.9 49.8
20:10 1019 30.09 848 25.04 12.8 55.1 88 10.9 51.6
20:15 1020 30.12 849 25.07 13.2 55.7 84 10.6 51
20:20 1020 30.12 849 25.07 13.1 55.7 84 10.4 50.8
20:25 1020 30.12 849 25.07 13 55.5 85 10.6 51.1
20:30 1020 30.12 849 25.07 12.8 55 85 10.4 50.6
20:35 1020 30.12 849 25.07 12.7 54.9 84 10.2 50.3
20:40 1020 30.12 849 25.07 12.8 55.1 83 10 50
20:45 1020 30.12 849 25.07 13 55.3 85 10.6 51.1
20:50 1020 30.12 849 25.07 12.8 55 87 10.7 51.2
20:55 1020 30.12 849 25.07 12.5 54.5 87 10.5 50.8
21:00 1020 30.12 849 25.07 12.4 54.3 87 10.4 50.7
21:05 1020 30.12 849 25.07 12.6 54.6 86 10.3 50.6
21:10 1020 30.12 849 25.07 12.7 54.8 84 10.1 50.2
21:15 1020 30.12 849 25.07 12.7 54.8 84 10.1 50.2
21:20 1020 30.12 849 25.07 12.6 54.7 84 10.1 50.1
21:25 1020 30.12 849 25.07 12.5 54.5 86 10.1 50.3
21:30 1020 30.12 849 25.07 12.2 54 85 9.8 49.6
21:35 1020 30.12 849 25.07 12.1 53.8 87 9.9 49.9
21:40 1020 30.12 849 25.07 12 53.6 85 9.6 49.2
21:45 1020 30.12 849 25.07 12.1 53.8 86 9.9 49.9
21:50 1020 30.12 849 25.07 12 53.6 87 9.9 49.9
21:55 1020 30.12 849 25.07 11.9 53.4 87 9.9 49.8
22:00 1020 30.12 849 25.07 12 53.6 85 9.6 49.3
22:05 1020 30.12 849 25.07 12.1 53.8 86 9.9 49.8
22:10 1019 30.09 849 25.07 12 53.7 86 9.9 49.7
22:15 1019 30.09 848 25.04 12 53.5 87 9.9 49.8
22:20 1019 30.09 848 25.04 11.9 53.3 86 9.7 49.4
22:25 1019 30.09 848 25.04 11.9 53.5 85 9.6 49.2
22:30 1019 30.09 848 25.04 12.1 53.7 84 9.4 49
22:35 1019 30.09 849 25.07 12.1 53.8 84 9.6 49.2
22:40 1019 30.09 848 25.04 12.1 53.7 84 9.5 49.1
22:45 1019 30.09 848 25.04 12.1 53.8 83 9.3 48.8
22:50 1019 30.09 848 25.04 12.1 53.8 83 9.4 48.9
22:55 1019 30.09 848 25.04 12.1 53.8 83 9.3 48.7
23:00 1019 30.09 848 25.04 12.3 54.1 80 9 48.2
23:05 1019 30.09 848 25.04 12.4 54.3 81 9.2 48.6
23:10 1019 30.09 848 25.04 12.1 53.8 83 9.4 48.9
23:15 1019 30.09 848 25.04 12.1 53.8 80 8.8 47.8
23:20 1019 30.09 848 25.04 12.2 53.9 80 8.8 47.8
23:25 1019 30.09 848 25.04 12.1 53.8 81 8.9 48.1
23:30 1019 30.09 848 25.04 12 53.6 80 8.8 47.8
23:35 1019 30.09 848 25.04 12 53.5 81 8.8 47.8
23:40 1018 30.06 848 25.04 12 53.5 79 8.5 47.3
23:45 1018 30.06 848 25.04 12.1 53.7 77 8.3 46.9
23:50 1018 30.06 848 25.04 12.2 54 78 8.5 47.3
23:55 1018 30.06 847 25.01 12.3 54.1 78 8.5 47.2
24:00 1018 30.06 847 25.01 12.3 54.1 78 8.5 47.4